San Leandro, CA (94577)

8:25 PM PDT on October 01, 2014 (GMT -0700)
SL Marina | Change Station
CLOSE
Current Station
Personal Weather Station
Location: San Leandro, CA
Elevation: 10 ft
Nearby Weather Stations
Active Advisory: Heat Advisory

Elev 10 ft 37.71 °N, 122.19 °W | Updated 8 seconds ago

Clear
Clear
69.3 °F
Feels Like 69.3 °F
N
0.0
Wind Variable Wind from NW

Today
High -- | Low -- °F
--% Chance of Precip.
Yesterday
High -- | Low -- °F
Precip. -- in
7:04 AM 6:51 PM
First Quarter, 54% visible
Pressure 29.90 in
Visibility 10.0 miles
Clouds Clear
Dew Point 48 °F
Humidity 46%
Rainfall 0.00 in
Snow Depth 0 in , 0 in , 0 in
UV 16.0 out of 12
Pollen 3.60 out of 12
Ozone Good
PM2.5 Good
Flu Activity Not available.
METAR KOAK 020253Z 30005KT 10SM CLR 21/11 A2990 RMK AO2 SLP123 T02110106 53010

More Conditions Fewer Conditions

Pressure 29.90 in
Visibility 10.0 miles
Clouds Clear
Dew Point 48 °F
Humidity 46%
Rainfall 0.00 in
Snow Depth 0 in , 0 in , 0 in
UV 16.0 out of 12
Pollen 3.60 out of 12
Ozone Good
PM2.5 Good
Flu Activity Not available.
METAR KOAK 020253Z 30005KT 10SM CLR 21/11 A2990 RMK AO2 SLP123 T02110106 53010

More Conditions Fewer Conditions

10-Day Weather Forecast

Almanac

Astronomy

Oct. 01, 2014 Rise Set
Actual Time 7:04 AM PDT 6:51 PM PDT
Civil Twilight 6:38 AM PDT 7:17 PM PDT
Nautical Twilight 6:07 AM PDT 7:48 PM PDT
Astronomical Twilight 5:37 AM PDT 8:18 PM PDT
Moon 2:05 PM PDT (10/1) No Moon Set
Length of Visible Light 12h 39m
Length of Day
11h 47m
Tomorrow will be 2m 24s shorter.
First Quarter, 54% of the Moon is Illuminated
Today
First Quarter
Oct 8
Full
Oct 15
Last Quarter
Oct 23
New
Oct 30
First Quarter

Today's Extremes

State Highs State Lows

Community

WunderPhotos

Upload Photos

1,758,161 photos uploaded!

WunderBlogs® & News

Nearby

Air Quality

  Air Quality AQ Index Pollutant
Yesterday Good
PM2.5
Yesterday Good
OZONE
Current Good
PM2.5
Current Good
OZONE
Wednesday Good
PM2.5
Thursday Moderate
NO2
Friday Moderate
NO2
Saturday Moderate
PM2.5
Sunday Moderate
PM2.5
Monday Moderate
PM2.5

Snow Depth

Station Depth Elevation
Blue Lakes 0 in 8000 ft
Forestdale Creek 0 in 8029 ft
Fallen Leaf 0 in 6300 ft
Hagan's Meadow 0 in 8000 ft
Monitor Pass 1 in 8350 ft

Earthquake Activity

City Distance Mag. Time & Date
South Dos Palos, California 104 miles 3.0 11:17 AM PDT
2014-10-01
Shandon, California 167 miles 2.9 5:34 PM PDT
2014-09-30
East Foothills, California 27 miles 2.6 3:34 PM PDT
2014-09-30
South Dos Palos, California 104 miles 2.7 3:08 PM PDT
2014-09-30
Minimum magnitude displayed is 2.5.

Coastal Water Temperatures

Place Temperature
No Stations Reporting

Nearby Weather Stations